Αρχική σελίδα
METAR-TAF:

METAR-TAF

Αεροδρόμια :

Λουσάκα, Ζάμπια

γεωγραφικό πλάτος: 15-19-51S, γεωγραφικό μήκος: 028-27-09E, υψόμετρο: 1152 μ

Παρών καιρός

Η αναφορά έγινε 7 ώρες και 7 λεπτά πριν, στις 17:00 UTC
Άνεμος 7 kt από Ν/NA
Θερμοκρασία 23°C
Υγρασία 31%
Πίεση 1023 hPa
Ορατότητα: 9000 μ

METAR: FLKK 161700Z 15007KT 9000 23/05 Q1023

Χρόνος: 02:07 (00:07 UTC)

Πρόγνωση Καιρού

Η αναφορά έγινε 2 ώρες και 7 λεπτά πριν, στις 22:00 UTC
Η πρόγνωση ισχύει από τις 15 στις 00 UTC έως τις 16 στις 06 UTC
Άνεμος 5 kt από Α
Ορατότητα 10 χλμ και άνω
Δεν υπάρχουν νέφη με βάση κάτω από τα 1500 μ. και δεν υπάρχουν νέφη σωρειτομελανίτες.

TAF: FLKK 142200Z 1500/1606 09005KT CAVOK

Μετεωρολογικές αναφορές και προγνώσεις για περισσότερα από 4000 αεροδρόμια (δελτία METAR και TAF).

Οι διαθέσιμοι σταθμοί απεικονίζονται στο χάρτη με κίτρινες και κόκκινες κουκκίδες.

Μετακινήστε το ποντίκι πάνω από τις κουκκίδες για να δείτε το όνομα του σταθμού.

Στη συνέχεια, κάντε κλικ για να δείτε τις μετεωρολογικές αναφορές και τις προγνώσεις καιρού.

Για να αλλάξετε το χάρτη: κάντε κλικ στα πράσινα κουμπιά με τον μαύρο σταυρό για να ζουμάρετε, στο πράσινο κουμπί με την παύλα για να αφαιρέσετε το ζουμ ή στα πράσινα βέλη για να αντιπαραβάλλετε χάρτες.


METAR-TAF: